sensor_id;sensor_type;location;lat;lon;timestamp;pressure;altitude;pressure_sealevel;temperature;humidity
64253;BME280;50592;52.958;-7.470;2023-07-24T00:01:23;99716.47;;;13.15;100.00
64253;BME280;50592;52.958;-7.470;2023-07-24T00:03:49;99719.47;;;13.12;100.00
64253;BME280;50592;52.958;-7.470;2023-07-24T00:06:15;99721.66;;;13.08;100.00
64253;BME280;50592;52.958;-7.470;2023-07-24T00:08:40;99721.84;;;13.07;100.00
64253;BME280;50592;52.958;-7.470;2023-07-24T00:11:09;99720.63;;;13.09;100.00
64253;BME280;50592;52.958;-7.470;2023-07-24T00:13:35;99713.75;;;13.00;100.00
64253;BME280;50592;52.958;-7.470;2023-07-24T00:16:06;99721.00;;;13.06;100.00
64253;BME280;50592;52.958;-7.470;2023-07-24T00:18:32;99724.38;;;13.00;100.00
64253;BME280;50592;52.958;-7.470;2023-07-24T00:20:58;99719.06;;;13.00;100.00
64253;BME280;50592;52.958;-7.470;2023-07-24T00:23:23;99728.03;;;12.99;100.00
64253;BME280;50592;52.958;-7.470;2023-07-24T00:25:49;99733.34;;;12.99;100.00
64253;BME280;50592;52.958;-7.470;2023-07-24T00:28:15;99725.75;;;12.96;100.00
64253;BME280;50592;52.958;-7.470;2023-07-24T00:30:42;99737.53;;;12.93;100.00
64253;BME280;50592;52.958;-7.470;2023-07-24T00:33:08;99733.22;;;12.92;100.00
64253;BME280;50592;52.958;-7.470;2023-07-24T00:35:34;99733.56;;;12.89;100.00
64253;BME280;50592;52.958;-7.470;2023-07-24T00:38:00;99730.09;;;12.88;100.00
64253;BME280;50592;52.958;-7.470;2023-07-24T00:40:25;99734.59;;;12.88;100.00
64253;BME280;50592;52.958;-7.470;2023-07-24T00:42:51;99736.59;;;12.86;100.00
64253;BME280;50592;52.958;-7.470;2023-07-24T00:45:17;99736.75;;;12.84;100.00
64253;BME280;50592;52.958;-7.470;2023-07-24T00:47:43;99746.72;;;12.82;100.00
64253;BME280;50592;52.958;-7.470;2023-07-24T00:50:11;99743.25;;;12.82;100.00
64253;BME280;50592;52.958;-7.470;2023-07-24T00:52:39;99749.53;;;12.81;100.00
64253;BME280;50592;52.958;-7.470;2023-07-24T00:55:05;99748.06;;;12.78;100.00
64253;BME280;50592;52.958;-7.470;2023-07-24T00:57:32;99747.41;;;12.76;100.00
64253;BME280;50592;52.958;-7.470;2023-07-24T00:59:59;99744.75;;;12.76;100.00
64253;BME280;50592;52.958;-7.470;2023-07-24T01:02:25;99746.13;;;12.72;100.00
64253;BME280;50592;52.958;-7.470;2023-07-24T01:04:51;99747.13;;;12.71;100.00
64253;BME280;50592;52.958;-7.470;2023-07-24T01:07:17;99744.84;;;12.68;100.00
64253;BME280;50592;52.958;-7.470;2023-07-24T01:09:43;99739.88;;;12.64;100.00
64253;BME280;50592;52.958;-7.470;2023-07-24T01:12:35;99746.81;;;12.65;100.00
64253;BME280;50592;52.958;-7.470;2023-07-24T01:15:31;99745.00;;;12.66;100.00
64253;BME280;50592;52.958;-7.470;2023-07-24T01:17:59;99746.34;;;12.62;100.00
64253;BME280;50592;52.958;-7.470;2023-07-24T01:20:29;99750.00;;;12.61;100.00
64253;BME280;50592;52.958;-7.470;2023-07-24T01:23:04;99749.84;;;12.62;100.00
64253;BME280;50592;52.958;-7.470;2023-07-24T01:25:59;99752.31;;;12.64;100.00
64253;BME280;50592;52.958;-7.470;2023-07-24T01:28:26;99754.13;;;12.63;100.00
64253;BME280;50592;52.958;-7.470;2023-07-24T01:30:52;99749.66;;;12.64;100.00
64253;BME280;50592;52.958;-7.470;2023-07-24T01:33:19;99756.44;;;12.67;100.00
64253;BME280;50592;52.958;-7.470;2023-07-24T01:35:51;99756.44;;;12.67;100.00
64253;BME280;50592;52.958;-7.470;2023-07-24T01:38:18;99758.44;;;12.64;100.00
64253;BME280;50592;52.958;-7.470;2023-07-24T01:40:45;99763.56;;;12.66;100.00
64253;BME280;50592;52.958;-7.470;2023-07-24T01:43:11;99763.41;;;12.68;100.00
64253;BME280;50592;52.958;-7.470;2023-07-24T01:45:37;99753.63;;;12.60;100.00
64253;BME280;50592;52.958;-7.470;2023-07-24T01:48:04;99756.94;;;12.62;100.00
64253;BME280;50592;52.958;-7.470;2023-07-24T01:50:31;99760.94;;;12.66;100.00
64253;BME280;50592;52.958;-7.470;2023-07-24T01:52:57;99760.09;;;12.65;100.00
64253;BME280;50592;52.958;-7.470;2023-07-24T01:55:23;99760.94;;;12.66;100.00
64253;BME280;50592;52.958;-7.470;2023-07-24T01:57:49;99762.25;;;12.62;100.00
64253;BME280;50592;52.958;-7.470;2023-07-24T02:00:15;99762.78;;;12.57;100.00
64253;BME280;50592;52.958;-7.470;2023-07-24T02:02:41;99762.47;;;12.52;100.00
64253;BME280;50592;52.958;-7.470;2023-07-24T02:05:07;99765.63;;;12.47;100.00
64253;BME280;50592;52.958;-7.470;2023-07-24T02:07:33;99767.34;;;12.40;100.00
64253;BME280;50592;52.958;-7.470;2023-07-24T02:09:59;99767.88;;;12.35;100.00
64253;BME280;50592;52.958;-7.470;2023-07-24T02:12:24;99767.91;;;12.27;100.00
64253;BME280;50592;52.958;-7.470;2023-07-24T02:14:50;99761.81;;;12.18;100.00
64253;BME280;50592;52.958;-7.470;2023-07-24T02:17:17;99769.09;;;12.16;100.00
64253;BME280;50592;52.958;-7.470;2023-07-24T02:19:44;99771.06;;;12.06;100.00
64253;BME280;50592;52.958;-7.470;2023-07-24T02:22:10;99768.13;;;12.00;100.00
64253;BME280;50592;52.958;-7.470;2023-07-24T02:24:36;99774.59;;;11.98;100.00
64253;BME280;50592;52.958;-7.470;2023-07-24T02:27:02;99770.47;;;11.95;100.00
64253;BME280;50592;52.958;-7.470;2023-07-24T02:29:30;99772.44;;;11.93;100.00
64253;BME280;50592;52.958;-7.470;2023-07-24T02:31:57;99770.81;;;11.92;100.00
64253;BME280;50592;52.958;-7.470;2023-07-24T02:34:23;99776.44;;;11.89;100.00
64253;BME280;50592;52.958;-7.470;2023-07-24T02:36:55;99779.94;;;11.89;100.00
64253;BME280;50592;52.958;-7.470;2023-07-24T02:39:21;99776.78;;;11.86;100.00
64253;BME280;50592;52.958;-7.470;2023-07-24T02:41:49;99784.22;;;11.90;100.00
64253;BME280;50592;52.958;-7.470;2023-07-24T02:44:16;99784.56;;;11.87;100.00
64253;BME280;50592;52.958;-7.470;2023-07-24T02:46:42;99784.56;;;11.87;100.00
64253;BME280;50592;52.958;-7.470;2023-07-24T02:49:09;99783.09;;;11.85;100.00
64253;BME280;50592;52.958;-7.470;2023-07-24T02:51:34;99790.03;;;11.86;100.00
64253;BME280;50592;52.958;-7.470;2023-07-24T02:54:00;99786.06;;;11.82;100.00
64253;BME280;50592;52.958;-7.470;2023-07-24T02:56:26;99793.34;;;11.79;100.00
64253;BME280;50592;52.958;-7.470;2023-07-24T02:58:52;99790.38;;;11.74;100.00
64253;BME280;50592;52.958;-7.470;2023-07-24T03:01:18;99793.19;;;11.73;100.00
64253;BME280;50592;52.958;-7.470;2023-07-24T03:03:44;99795.34;;;11.69;100.00
64253;BME280;50592;52.958;-7.470;2023-07-24T03:06:10;99801.81;;;11.66;100.00
64253;BME280;50592;52.958;-7.470;2023-07-24T03:08:35;99801.13;;;11.64;100.00
64253;BME280;50592;52.958;-7.470;2023-07-24T03:11:05;99805.78;;;11.62;100.00
64253;BME280;50592;52.958;-7.470;2023-07-24T03:13:31;99811.06;;;11.54;100.00
64253;BME280;50592;52.958;-7.470;2023-07-24T03:15:57;99815.88;;;11.50;100.00
64253;BME280;50592;52.958;-7.470;2023-07-24T03:18:24;99801.81;;;11.50;100.00
64253;BME280;50592;52.958;-7.470;2023-07-24T03:20:50;99813.38;;;11.49;100.00
64253;BME280;50592;52.958;-7.470;2023-07-24T03:23:16;99817.84;;;11.48;100.00
64253;BME280;50592;52.958;-7.470;2023-07-24T03:25:43;99817.84;;;11.48;100.00
64253;BME280;50592;52.958;-7.470;2023-07-24T03:28:09;99808.09;;;11.49;100.00
64253;BME280;50592;52.958;-7.470;2023-07-24T03:30:35;99822.00;;;11.51;100.00
64253;BME280;50592;52.958;-7.470;2023-07-24T03:33:01;99825.16;;;11.54;100.00
64253;BME280;50592;52.958;-7.470;2023-07-24T03:35:30;99828.44;;;11.57;100.00
64253;BME280;50592;52.958;-7.470;2023-07-24T03:37:55;99829.09;;;11.59;100.00
64253;BME280;50592;52.958;-7.470;2023-07-24T03:40:21;99837.72;;;11.61;100.00
64253;BME280;50592;52.958;-7.470;2023-07-24T03:42:47;99833.91;;;11.63;100.00
64253;BME280;50592;52.958;-7.470;2023-07-24T03:45:13;99839.69;;;11.67;100.00
64253;BME280;50592;52.958;-7.470;2023-07-24T03:47:38;99846.13;;;11.73;100.00
64253;BME280;50592;52.958;-7.470;2023-07-24T03:50:05;99837.84;;;11.76;100.00
64253;BME280;50592;52.958;-7.470;2023-07-24T03:52:30;99838.69;;;11.76;100.00
64253;BME280;50592;52.958;-7.470;2023-07-24T03:54:56;99838.19;;;11.81;100.00
64253;BME280;50592;52.958;-7.470;2023-07-24T03:57:22;99842.16;;;11.85;100.00
64253;BME280;50592;52.958;-7.470;2023-07-24T03:59:48;99836.50;;;11.88;100.00
64253;BME280;50592;52.958;-7.470;2023-07-24T04:02:13;99840.31;;;11.94;100.00
64253;BME280;50592;52.958;-7.470;2023-07-24T04:04:39;99827.88;;;11.95;100.00
64253;BME280;50592;52.958;-7.470;2023-07-24T04:07:05;99835.31;;;11.99;100.00
64253;BME280;50592;52.958;-7.470;2023-07-24T04:09:31;99837.28;;;12.06;100.00
64253;BME280;50592;52.958;-7.470;2023-07-24T04:11:57;99837.28;;;12.06;100.00
64253;BME280;50592;52.958;-7.470;2023-07-24T04:14:23;99831.72;;;12.09;100.00
64253;BME280;50592;52.958;-7.470;2023-07-24T04:16:49;99848.91;;;12.13;100.00
64253;BME280;50592;52.958;-7.470;2023-07-24T04:19:15;99845.09;;;12.15;100.00
64253;BME280;50592;52.958;-7.470;2023-07-24T04:21:41;99844.94;;;12.17;100.00
64253;BME280;50592;52.958;-7.470;2023-07-24T04:24:07;99847.06;;;12.22;100.00
64253;BME280;50592;52.958;-7.470;2023-07-24T04:26:32;99852.19;;;12.23;100.00
64253;BME280;50592;52.958;-7.470;2023-07-24T04:28:58;99846.56;;;12.26;100.00
64253;BME280;50592;52.958;-7.470;2023-07-24T04:31:24;99848.06;;;12.29;100.00
64253;BME280;50592;52.958;-7.470;2023-07-24T04:33:50;99858.31;;;12.32;100.00
64253;BME280;50592;52.958;-7.470;2023-07-24T04:36:16;99850.19;;;12.34;100.00
64253;BME280;50592;52.958;-7.470;2023-07-24T04:38:41;99856.78;;;12.38;100.00
64253;BME280;50592;52.958;-7.470;2023-07-24T04:41:07;99855.63;;;12.40;100.00
64253;BME280;50592;52.958;-7.470;2023-07-24T04:43:33;99861.41;;;12.44;100.00
64253;BME280;50592;52.958;-7.470;2023-07-24T04:45:59;99868.66;;;12.50;100.00
64253;BME280;50592;52.958;-7.470;2023-07-24T04:48:25;99862.50;;;12.58;100.00
64253;BME280;50592;52.958;-7.470;2023-07-24T04:50:54;99880.22;;;12.66;100.00
64253;BME280;50592;52.958;-7.470;2023-07-24T04:53:23;99881.72;;;12.69;100.00
64253;BME280;50592;52.958;-7.470;2023-07-24T04:55:49;99880.00;;;12.76;100.00
64253;BME280;50592;52.958;-7.470;2023-07-24T04:58:15;99885.44;;;12.83;100.00
64253;BME280;50592;52.958;-7.470;2023-07-24T05:00:41;99882.31;;;12.79;100.00
64253;BME280;50592;52.958;-7.470;2023-07-24T05:03:07;99884.31;;;12.77;100.00
64253;BME280;50592;52.958;-7.470;2023-07-24T05:05:39;99888.78;;;12.76;100.00
64253;BME280;50592;52.958;-7.470;2023-07-24T05:08:05;99887.00;;;12.69;100.00
64253;BME280;50592;52.958;-7.470;2023-07-24T05:10:37;99891.47;;;12.68;100.00
64253;BME280;50592;52.958;-7.470;2023-07-24T05:13:03;99899.09;;;12.63;100.00
64253;BME280;50592;52.958;-7.470;2023-07-24T05:15:29;99902.09;;;12.60;100.00
64253;BME280;50592;52.958;-7.470;2023-07-24T05:17:55;99906.59;;;12.59;100.00
64253;BME280;50592;52.958;-7.470;2023-07-24T05:20:21;99899.78;;;12.57;100.00
64253;BME280;50592;52.958;-7.470;2023-07-24T05:22:47;99905.28;;;12.55;100.00
64253;BME280;50592;52.958;-7.470;2023-07-24T05:25:12;99910.56;;;12.55;100.00
64253;BME280;50592;52.958;-7.470;2023-07-24T05:27:38;99919.84;;;12.59;100.00
64253;BME280;50592;52.958;-7.470;2023-07-24T05:30:05;99911.56;;;12.62;100.00
64253;BME280;50592;52.958;-7.470;2023-07-24T05:32:31;99915.00;;;12.63;100.00
64253;BME280;50592;52.958;-7.470;2023-07-24T05:34:57;99914.34;;;12.69;100.00
64253;BME280;50592;52.958;-7.470;2023-07-24T05:37:22;99925.25;;;12.74;100.00
64253;BME280;50592;52.958;-7.470;2023-07-24T05:39:48;99921.81;;;12.74;100.00
64253;BME280;50592;52.958;-7.470;2023-07-24T05:42:14;99910.34;;;12.73;100.00
64253;BME280;50592;52.958;-7.470;2023-07-24T05:44:40;99920.44;;;12.78;100.00
64253;BME280;50592;52.958;-7.470;2023-07-24T05:47:06;99915.81;;;12.80;100.00
64253;BME280;50592;52.958;-7.470;2023-07-24T05:49:32;99919.44;;;12.79;100.00
64253;BME280;50592;52.958;-7.470;2023-07-24T05:51:57;99922.94;;;12.80;100.00
64253;BME280;50592;52.958;-7.470;2023-07-24T05:54:23;99918.47;;;12.80;100.00
64253;BME280;50592;52.958;-7.470;2023-07-24T05:56:49;99918.63;;;12.78;100.00
64253;BME280;50592;52.958;-7.470;2023-07-24T05:59:17;99917.31;;;12.74;100.00
64253;BME280;50592;52.958;-7.470;2023-07-24T06:01:43;99931.91;;;12.70;100.00
64253;BME280;50592;52.958;-7.470;2023-07-24T06:04:08;99930.44;;;12.68;100.00
64253;BME280;50592;52.958;-7.470;2023-07-24T06:06:34;99935.75;;;12.68;100.00
64253;BME280;50592;52.958;-7.470;2023-07-24T06:09:02;99940.38;;;12.65;100.00
64253;BME280;50592;52.958;-7.470;2023-07-24T06:11:28;99944.34;;;12.70;100.00
64253;BME280;50592;52.958;-7.470;2023-07-24T06:13:54;99941.69;;;12.70;100.00
64253;BME280;50592;52.958;-7.470;2023-07-24T06:16:20;99933.91;;;12.68;100.00
64253;BME280;50592;52.958;-7.470;2023-07-24T06:18:45;99935.41;;;12.62;100.00
64253;BME280;50592;52.958;-7.470;2023-07-24T06:21:11;99931.94;;;12.62;100.00
64253;BME280;50592;52.958;-7.470;2023-07-24T06:23:37;99934.25;;;12.57;100.00
64253;BME280;50592;52.958;-7.470;2023-07-24T06:26:03;99935.94;;;12.58;100.00
64253;BME280;50592;52.958;-7.470;2023-07-24T06:28:29;99936.56;;;12.60;100.00
64253;BME280;50592;52.958;-7.470;2023-07-24T06:30:55;99941.56;;;12.55;100.00
64253;BME280;50592;52.958;-7.470;2023-07-24T06:33:21;99939.25;;;12.51;100.00
64253;BME280;50592;52.958;-7.470;2023-07-24T06:35:50;99936.44;;;12.53;100.00
64253;BME280;50592;52.958;-7.470;2023-07-24T06:38:16;99944.06;;;12.56;100.00
64253;BME280;50592;52.958;-7.470;2023-07-24T06:40:42;99952.66;;;12.58;100.00
64253;BME280;50592;52.958;-7.470;2023-07-24T06:43:08;99943.88;;;12.58;100.00
64253;BME280;50592;52.958;-7.470;2023-07-24T06:45:34;99954.78;;;12.63;100.00
64253;BME280;50592;52.958;-7.470;2023-07-24T06:48:00;99958.59;;;12.69;100.00
64253;BME280;50592;52.958;-7.470;2023-07-24T06:50:26;99969.34;;;12.75;100.00
64253;BME280;50592;52.958;-7.470;2023-07-24T06:52:51;99967.50;;;12.76;100.00
64253;BME280;50592;52.958;-7.470;2023-07-24T06:55:19;99967.34;;;12.77;100.00
64253;BME280;50592;52.958;-7.470;2023-07-24T06:57:45;99970.00;;;12.77;100.00
64253;BME280;50592;52.958;-7.470;2023-07-24T07:00:11;99972.13;;;12.82;100.00
64253;BME280;50592;52.958;-7.470;2023-07-24T07:02:38;99968.31;;;12.93;100.00
64253;BME280;50592;52.958;-7.470;2023-07-24T07:05:05;99968.59;;;12.98;100.00
64253;BME280;50592;52.958;-7.470;2023-07-24T07:07:31;99970.91;;;13.01;100.00
64253;BME280;50592;52.958;-7.470;2023-07-24T07:09:56;99974.41;;;13.02;100.00
64253;BME280;50592;52.958;-7.470;2023-07-24T07:12:22;99973.34;;;13.11;100.00
64253;BME280;50592;52.958;-7.470;2023-07-24T07:14:48;99980.63;;;13.18;100.00
64253;BME280;50592;52.958;-7.470;2023-07-24T07:17:14;99978.28;;;13.23;100.00
64253;BME280;50592;52.958;-7.470;2023-07-24T07:19:40;99972.81;;;13.24;100.00
64253;BME280;50592;52.958;-7.470;2023-07-24T07:22:06;99977.94;;;13.26;100.00
64253;BME280;50592;52.958;-7.470;2023-07-24T07:24:31;99981.38;;;13.35;100.00
64253;BME280;50592;52.958;-7.470;2023-07-24T07:26:57;99983.47;;;13.48;100.00
64253;BME280;50592;52.958;-7.470;2023-07-24T07:29:23;99987.13;;;13.55;100.00
64253;BME280;50592;52.958;-7.470;2023-07-24T07:31:49;99991.19;;;13.66;100.00
64253;BME280;50592;52.958;-7.470;2023-07-24T07:34:15;99987.06;;;13.87;100.00
64253;BME280;50592;52.958;-7.470;2023-07-24T07:36:41;99993.19;;;14.11;100.00
64253;BME280;50592;52.958;-7.470;2023-07-24T07:39:06;99988.56;;;14.28;100.00
64253;BME280;50592;52.958;-7.470;2023-07-24T07:41:32;99979.97;;;14.41;100.00
64253;BME280;50592;52.958;-7.470;2023-07-24T07:43:58;99986.66;;;14.67;100.00
64253;BME280;50592;52.958;-7.470;2023-07-24T07:46:24;99991.47;;;14.87;100.00
64253;BME280;50592;52.958;-7.470;2023-07-24T07:48:51;99984.97;;;15.05;100.00
64253;BME280;50592;52.958;-7.470;2023-07-24T08:19:09;100009.53;;;15.07;100.00
64253;BME280;50592;52.958;-7.470;2023-07-24T08:21:35;100011.94;;;15.02;100.00
64253;BME280;50592;52.958;-7.470;2023-07-24T08:24:01;100008.09;;;14.89;100.00
64253;BME280;50592;52.958;-7.470;2023-07-24T08:26:28;100007.81;;;14.84;100.00
64253;BME280;50592;52.958;-7.470;2023-07-24T08:28:53;100015.81;;;14.84;100.00
64253;BME280;50592;52.958;-7.470;2023-07-24T08:31:19;100011.94;;;14.86;100.00
64253;BME280;50592;52.958;-7.470;2023-07-24T08:33:45;100015.47;;;14.79;100.00
64253;BME280;50592;52.958;-7.470;2023-07-24T08:36:11;100011.63;;;14.66;100.00
64253;BME280;50592;52.958;-7.470;2023-07-24T08:38:40;100022.91;;;14.68;100.00
64253;BME280;50592;52.958;-7.470;2023-07-24T08:41:11;100023.78;;;14.84;100.00
64253;BME280;50592;52.958;-7.470;2023-07-24T08:43:39;100019.09;;;14.86;100.00
64253;BME280;50592;52.958;-7.470;2023-07-24T08:46:06;100019.91;;;14.86;100.00
64253;BME280;50592;52.958;-7.470;2023-07-24T08:48:36;100020.84;;;14.94;100.00
64253;BME280;50592;52.958;-7.470;2023-07-24T08:51:07;100015.72;;;14.92;100.00
64253;BME280;50592;52.958;-7.470;2023-07-24T08:53:35;100022.03;;;14.91;100.00
64253;BME280;50592;52.958;-7.470;2023-07-24T08:56:03;100021.09;;;14.99;100.00
64253;BME280;50592;52.958;-7.470;2023-07-24T08:58:29;100029.09;;;15.14;100.00
64253;BME280;50592;52.958;-7.470;2023-07-24T09:00:59;100018.59;;;15.28;100.00
64253;BME280;50592;52.958;-7.470;2023-07-24T09:03:25;100031.34;;;15.32;100.00
64253;BME280;50592;52.958;-7.470;2023-07-24T09:05:51;100023.19;;;15.34;100.00
64253;BME280;50592;52.958;-7.470;2023-07-24T09:08:30;100031.16;;;15.34;100.00
64253;BME280;50592;52.958;-7.470;2023-07-24T09:11:00;100033.59;;;15.29;100.00
64253;BME280;50592;52.958;-7.470;2023-07-24T09:13:27;100031.63;;;15.37;100.00
64253;BME280;50592;52.958;-7.470;2023-07-24T09:15:53;100032.19;;;15.48;100.00
64253;BME280;50592;52.958;-7.470;2023-07-24T09:18:19;100022.97;;;15.50;100.00
64253;BME280;50592;52.958;-7.470;2023-07-24T09:20:45;100030.50;;;15.47;100.00
64253;BME280;50592;52.958;-7.470;2023-07-24T09:23:12;100020.22;;;15.44;100.00
64253;BME280;50592;52.958;-7.470;2023-07-24T09:25:40;100025.44;;;15.52;100.00
64253;BME280;50592;52.958;-7.470;2023-07-24T09:28:14;100030.88;;;15.59;100.00
64253;BME280;50592;52.958;-7.470;2023-07-24T09:30:41;100028.81;;;15.61;100.00
64253;BME280;50592;52.958;-7.470;2023-07-24T09:33:09;100029.28;;;15.65;100.00
64253;BME280;50592;52.958;-7.470;2023-07-24T09:35:35;100034.59;;;15.65;100.00
64253;BME280;50592;52.958;-7.470;2023-07-24T09:38:08;100029.09;;;15.66;100.00
64253;BME280;50592;52.958;-7.470;2023-07-24T09:40:39;100027.63;;;15.63;100.00
64253;BME280;50592;52.958;-7.470;2023-07-24T09:43:20;100023.50;;;15.61;100.00
64253;BME280;50592;52.958;-7.470;2023-07-24T09:45:47;100023.50;;;15.61;100.00
64253;BME280;50592;52.958;-7.470;2023-07-24T09:48:14;100017.41;;;15.67;100.00
64253;BME280;50592;52.958;-7.470;2023-07-24T09:50:42;100021.38;;;15.71;100.00
64253;BME280;50592;52.958;-7.470;2023-07-24T09:53:28;100019.78;;;15.77;100.00
64253;BME280;50592;52.958;-7.470;2023-07-24T09:56:03;100008.91;;;15.79;100.00
64253;BME280;50592;52.958;-7.470;2023-07-24T09:58:32;100025.94;;;15.78;100.00
64253;BME280;50592;52.958;-7.470;2023-07-24T10:01:01;100018.88;;;15.70;100.00
64253;BME280;50592;52.958;-7.470;2023-07-24T10:03:28;100025.53;;;15.59;100.00
64253;BME280;50592;52.958;-7.470;2023-07-24T10:05:55;100025.97;;;15.62;100.00
64253;BME280;50592;52.958;-7.470;2023-07-24T10:08:21;100028.06;;;15.67;100.00
64253;BME280;50592;52.958;-7.470;2023-07-24T10:10:47;100029.81;;;15.75;100.00
64253;BME280;50592;52.958;-7.470;2023-07-24T10:13:17;100021.94;;;15.88;100.00
64253;BME280;50592;52.958;-7.470;2023-07-24T10:15:44;100029.94;;;15.88;100.00
64253;BME280;50592;52.958;-7.470;2023-07-24T10:18:11;100024.22;;;15.92;100.00
64253;BME280;50592;52.958;-7.470;2023-07-24T10:20:41;100024.69;;;15.95;100.00
64253;BME280;50592;52.958;-7.470;2023-07-24T10:23:11;100019.88;;;16.06;100.00
64253;BME280;50592;52.958;-7.470;2023-07-24T10:25:44;100022.66;;;16.19;100.00
64253;BME280;50592;52.958;-7.470;2023-07-24T10:28:12;100022.34;;;16.29;100.00
64253;BME280;50592;52.958;-7.470;2023-07-24T10:30:39;100020.53;;;16.36;100.00
64253;BME280;50592;52.958;-7.470;2023-07-24T10:35:44;100027.81;;;16.49;100.00
64253;BME280;50592;52.958;-7.470;2023-07-24T10:38:10;100032.97;;;16.51;100.00
64253;BME280;50592;52.958;-7.470;2023-07-24T10:40:36;100030.69;;;16.48;100.00
64253;BME280;50592;52.958;-7.470;2023-07-24T10:43:13;100040.97;;;16.51;100.00
64253;BME280;50592;52.958;-7.470;2023-07-24T10:45:48;100032.31;;;16.49;100.00
64253;BME280;50592;52.958;-7.470;2023-07-24T10:48:15;100031.34;;;16.57;100.00
64253;BME280;50592;52.958;-7.470;2023-07-24T10:50:43;100029.97;;;16.68;100.00
64253;BME280;50592;52.958;-7.470;2023-07-24T10:53:10;100030.03;;;16.74;100.00
64253;BME280;50592;52.958;-7.470;2023-07-24T10:55:36;100024.69;;;16.74;100.00
64253;BME280;50592;52.958;-7.470;2023-07-24T10:58:02;100033.19;;;16.85;100.00
64253;BME280;50592;52.958;-7.470;2023-07-24T11:00:28;100030.88;;;16.75;100.00
64253;BME280;50592;52.958;-7.470;2023-07-24T11:02:54;100034.53;;;16.67;100.00
64253;BME280;50592;52.958;-7.470;2023-07-24T11:05:23;100044.34;;;16.67;100.00
64253;BME280;50592;52.958;-7.470;2023-07-24T11:07:50;100041.44;;;16.61;100.00
64253;BME280;50592;52.958;-7.470;2023-07-24T11:10:20;100041.84;;;16.58;100.00
64253;BME280;50592;52.958;-7.470;2023-07-24T11:12:46;100042.72;;;16.37;100.00
64253;BME280;50592;52.958;-7.470;2023-07-24T11:15:13;100050.25;;;16.33;100.00
64253;BME280;50592;52.958;-7.470;2023-07-24T11:17:40;100047.72;;;16.25;100.00
64253;BME280;50592;52.958;-7.470;2023-07-24T11:20:14;100045.91;;;16.26;100.00
64253;BME280;50592;52.958;-7.470;2023-07-24T11:22:42;100042.00;;;16.28;100.00
64253;BME280;50592;52.958;-7.470;2023-07-24T11:25:09;100048.25;;;16.35;100.00
64253;BME280;50592;52.958;-7.470;2023-07-24T11:27:40;100048.53;;;16.47;100.00
64253;BME280;50592;52.958;-7.470;2023-07-24T11:30:08;100062.50;;;16.49;100.00
64253;BME280;50592;52.958;-7.470;2023-07-24T11:32:34;100055.94;;;16.52;100.00
64253;BME280;50592;52.958;-7.470;2023-07-24T11:35:00;100052.06;;;16.55;100.00
64253;BME280;50592;52.958;-7.470;2023-07-24T11:37:27;100054.66;;;16.70;100.00
64253;BME280;50592;52.958;-7.470;2023-07-24T11:40:00;100058.47;;;16.89;100.00
64253;BME280;50592;52.958;-7.470;2023-07-24T11:42:30;100062.72;;;16.83;100.00
64253;BME280;50592;52.958;-7.470;2023-07-24T11:45:00;100062.91;;;16.82;100.00
64253;BME280;50592;52.958;-7.470;2023-07-24T11:47:26;100061.63;;;16.71;100.00
64253;BME280;50592;52.958;-7.470;2023-07-24T11:49:59;100065.31;;;16.70;100.00
64253;BME280;50592;52.958;-7.470;2023-07-24T11:52:26;100066.28;;;16.62;100.00
64253;BME280;50592;52.958;-7.470;2023-07-24T11:54:58;100069.28;;;16.52;100.00
64253;BME280;50592;52.958;-7.470;2023-07-24T11:57:29;100079.22;;;16.36;100.00
64253;BME280;50592;52.958;-7.470;2023-07-24T11:59:55;100074.31;;;16.18;100.00
64253;BME280;50592;52.958;-7.470;2023-07-24T12:02:27;100073.56;;;16.03;100.00
64253;BME280;50592;52.958;-7.470;2023-07-24T12:04:55;100073.59;;;15.87;100.00
64253;BME280;50592;52.958;-7.470;2023-07-24T12:07:28;100073.53;;;15.81;100.00
64253;BME280;50592;52.958;-7.470;2023-07-24T12:09:54;100072.50;;;15.82;100.00
64253;BME280;50592;52.958;-7.470;2023-07-24T12:12:20;100067.63;;;15.85;100.00
64253;BME280;50592;52.958;-7.470;2023-07-24T12:14:45;100070.09;;;15.87;100.00
64253;BME280;50592;52.958;-7.470;2023-07-24T12:17:17;100064.84;;;15.94;100.00
64253;BME280;50592;52.958;-7.470;2023-07-24T12:19:43;100071.09;;;16.01;100.00
64253;BME280;50592;52.958;-7.470;2023-07-24T12:22:09;100069.53;;;16.07;100.00
64253;BME280;50592;52.958;-7.470;2023-07-24T12:24:35;100067.72;;;16.14;100.00
64253;BME280;50592;52.958;-7.470;2023-07-24T12:27:00;100062.50;;;16.28;100.00
64253;BME280;50592;52.958;-7.470;2023-07-24T12:29:26;100058.75;;;16.44;100.00
64253;BME280;50592;52.958;-7.470;2023-07-24T12:31:52;100056.84;;;16.59;100.00
64253;BME280;50592;52.958;-7.470;2023-07-24T12:34:18;100053.03;;;16.76;100.00
64253;BME280;50592;52.958;-7.470;2023-07-24T12:36:44;100054.22;;;17.02;100.00
64253;BME280;50592;52.958;-7.470;2023-07-24T12:39:09;100045.34;;;17.23;100.00
64253;BME280;50592;52.958;-7.470;2023-07-24T12:41:35;100039.84;;;17.38;100.00
64253;BME280;50592;52.958;-7.470;2023-07-24T12:44:01;100039.63;;;17.40;100.00
64253;BME280;50592;52.958;-7.470;2023-07-24T12:46:26;100039.19;;;17.36;100.00
64253;BME280;50592;52.958;-7.470;2023-07-24T12:48:52;100039.59;;;17.33;100.00
64253;BME280;50592;52.958;-7.470;2023-07-24T12:51:18;100047.81;;;17.25;100.00
64253;BME280;50592;52.958;-7.470;2023-07-24T12:53:44;100046.22;;;17.02;100.00
64253;BME280;50592;52.958;-7.470;2023-07-24T12:56:09;100058.59;;;16.81;100.00
64253;BME280;50592;52.958;-7.470;2023-07-24T12:58:35;100043.31;;;16.61;100.00
64253;BME280;50592;52.958;-7.470;2023-07-24T13:01:01;100043.00;;;16.49;100.00
64253;BME280;50592;52.958;-7.470;2023-07-24T13:03:27;100045.19;;;16.39;100.00
64253;BME280;50592;52.958;-7.470;2023-07-24T13:05:52;100038.00;;;16.39;100.00